Meteorología y climatología de Navarra
Datos de la estación - Meteo Navarra

Estación de Sartaguda GN

Altitud 310 m.


Datos desde el 15/01/2020 hasta el 16/01/2020 en horario solar
Los datos son PROVISIONALES

Anterior Página 1 de 1 Siguiente Descargar: Formato para Excel 2000 o superior   Formato csv   Formato para OpenOffice Calc
Fecha Temperatura Humedad relativa Radiación global Insolación Precipitación Vel. viento 10 m Vel. viento 10 m Dir. viento 10 m
ºC % W/m² s l/m² m/s km/h º
15/01/2020 0:00 -0.3 98 0.0 0 0.0 1.0 3.6 349
15/01/2020 0:10 -0.2 98 0.0 0 0.0 0.9 3.3 356
15/01/2020 0:20 -0.3 98 0.0 0 0.0 0.7 2.6 313
15/01/2020 0:30 -0.2 98 0.0 0 0.0 1.6 5.7 312
15/01/2020 0:40 -0.2 98 0.0 0 0.0 1.4 4.9 312
15/01/2020 0:50 -0.1 98 0.0 0 0.0 1.7 6.2 302
15/01/2020 1:00 -0.1 98 0.0 0 0.0 2.1 7.6 310
15/01/2020 1:10 -0.0 98 0.0 0 0.0 1.7 6.2 303
15/01/2020 1:20 -0.1 98 0.0 0 0.0 1.4 4.9 295
15/01/2020 1:30 -0.1 98 0.0 0 0.0 1.2 4.2 301
15/01/2020 1:40 -0.1 98 0.0 0 0.0 1.1 4.1 294
15/01/2020 1:50 -0.1 98 0.0 0 0.0 1.2 4.4 276
15/01/2020 2:00 -0.1 98 0.0 0 0.0 1.1 4.1 288
15/01/2020 2:10 -0.1 98 0.0 0 0.0 1.3 4.8 283
15/01/2020 2:20 -0.1 98 0.0 0 0.0 1.4 5.0 281
15/01/2020 2:30 -0.0 98 0.0 0 0.0 1.1 3.8 299
15/01/2020 2:40 0.0 98 0.0 0 0.0 1.0 3.7 287
15/01/2020 2:50 -0.1 98 0.0 0 0.0 0.5 1.7 282
15/01/2020 3:00 -0.1 98 0.0 0 0.0 0.5 1.8 279
15/01/2020 3:10 -0.2 98 0.0 0 0.0 0.5 1.7 286
15/01/2020 3:20 -0.2 98 0.0 0 0.0 0.6 2.1 288
15/01/2020 3:30 -0.3 98 0.0 0 0.0 0.2 0.8 252
15/01/2020 3:40 -0.3 98 0.0 0 0.0 0.9 3.1 255
15/01/2020 3:50 -0.2 97 0.0 0 0.0 0.9 3.1 265
15/01/2020 4:00 -0.2 97 0.0 0 0.0 0.8 2.8 307
15/01/2020 4:10 -0.2 97 0.0 0 0.0 1.1 3.9 339
15/01/2020 4:20 -0.2 97 0.0 0 0.0 0.8 2.9 334
15/01/2020 4:30 -0.4 97 0.0 0 0.0 0.2 0.6 47
15/01/2020 4:40 -0.5 97 0.0 0 0.0 0.0 0.0 0
15/01/2020 4:50 -0.7 96 0.0 0 0.0 0.2 0.9 144
15/01/2020 5:00 -0.9 96 0.0 0 0.0 0.2 0.9 219
15/01/2020 5:10 -0.9 96 0.0 0 0.0 0.4 1.4 289
15/01/2020 5:20 -1.1 96 0.0 0 0.0 0.3 1.2 336
15/01/2020 5:30 -1.1 96 0.0 0 0.0 0.1 0.5 303
15/01/2020 5:40 -1.1 96 0.0 0 0.0 0.7 2.4 267
15/01/2020 5:50 -1.2 96 0.0 0 0.0 0.5 1.9 254
15/01/2020 6:00 -1.2 96 0.0 0 0.0 0.6 2.2 293
15/01/2020 6:10 -1.3 96 0.0 0 0.0 0.7 2.4 340
15/01/2020 6:20 -1.5 96 0.0 0 0.0 0.8 3.0 325
15/01/2020 6:30 -1.3 96 0.0 0 0.0 0.9 3.2 276
15/01/2020 6:40 -1.1 97 0.0 0 0.0 0.7 2.5 308
15/01/2020 6:50 -1.2 97 0.0 0 0.0 0.4 1.3 279
15/01/2020 7:00 -1.3 97 0.0 0 0.0 0.7 2.4 274
15/01/2020 7:10 -1.4 97 0.0 0 0.0 0.6 2.0 287
15/01/2020 7:20 -1.5 97 0.0 0 0.0 0.3 1.0 352
15/01/2020 7:30 -1.5 97 0.0 0 0.0 0.5 1.8 171
15/01/2020 7:40 -1.6 96 0.0 0 0.0 0.4 1.6 73
15/01/2020 7:50 -1.7 96 5.7 0 0.0 0.9 3.2 38
15/01/2020 8:00 -1.6 97 36.6 416 0.0 0.7 2.3 43
15/01/2020 8:10 -1.5 97 42.4 466 0.0 0.2 0.8 127
15/01/2020 8:20 -1.3 97 29.5 0 0.0 0.7 2.4 259
15/01/2020 8:30 -1.0 97 28.9 0 0.0 0.7 2.7 271
15/01/2020 8:40 -1.0 97 31.9 0 0.0 0.5 1.6 348
15/01/2020 8:50 -0.9 97 37.2 0 0.0 0.1 0.5 44
15/01/2020 9:00 -0.7 97 41.6 0 0.0 0.6 2.2 223
15/01/2020 9:10 -0.5 97 43.9 0 0.0 0.8 2.9 202
15/01/2020 9:20 -0.3 97 41.6 0 0.0 0.6 2.3 11
15/01/2020 9:30 0.1 97 51.6 0 0.0 0.6 2.2 134
15/01/2020 9:40 0.2 97 70.2 0 0.0 1.3 4.8 62
15/01/2020 9:50 0.5 97 75.4 0 0.0 1.3 4.6 37
15/01/2020 10:00 0.8 97 62.1 0 0.0 0.7 2.6 20
15/01/2020 10:10 1.1 96 76.8 0 0.0 1.0 3.4 2
15/01/2020 10:20 1.5 96 94.5 0 0.0 1.6 5.8 302
15/01/2020 10:30 1.7 96 93.4 0 0.0 1.6 5.8 295
15/01/2020 10:40 2.0 96 104.3 0 0.0 1.1 4.1 277
15/01/2020 10:50 2.4 95 145.9 0 0.0 1.2 4.5 270
15/01/2020 11:00 2.8 95 180.8 0 0.0 1.2 4.2 278
15/01/2020 11:10 3.2 94 188.0 0 0.0 1.3 4.5 314
15/01/2020 11:20 3.6 92 191.3 0 0.0 1.7 5.9 313
15/01/2020 11:30 4.0 91 206.0 0 0.0 1.1 3.9 319
15/01/2020 11:40 4.4 89 238.3 388 0.0 0.6 2.2 343
15/01/2020 11:50 5.2 87 316.4 600 0.0 1.5 5.5 140
15/01/2020 12:00 6.2 80 258.5 514 0.0 3.3 12.0 128
15/01/2020 12:10 5.9 79 185.2 0 0.0 3.5 12.7 126
15/01/2020 12:20 5.8 80 165.2 0 0.0 3.3 11.8 136
15/01/2020 12:30 5.9 79 182.2 0 0.0 2.0 7.2 139
15/01/2020 12:40 6.0 79 201.6 0 0.0 2.0 7.1 129
15/01/2020 12:50 6.2 80 216.5 22 0.0 0.4 1.4 97
15/01/2020 13:00 6.3 80 313.3 600 0.0 0.2 0.8 317
15/01/2020 13:10 7.0 78 453.9 600 0.0 1.2 4.3 338
15/01/2020 13:20 7.1 75 283.6 600 0.0 1.4 4.9 327
15/01/2020 13:30 7.2 76 398.7 600 0.0 2.1 7.5 303
15/01/2020 13:40 7.4 76 313.9 442 0.0 2.2 7.8 301
15/01/2020 13:50 7.4 76 168.0 86 0.0 1.9 6.9 286
15/01/2020 14:00 7.4 75 216.3 234 0.0 1.2 4.4 304
15/01/2020 14:10 7.6 76 216.7 382 0.0 1.4 5.2 298
15/01/2020 14:20 7.8 75 205.3 220 0.0 2.0 7.2 283
15/01/2020 14:30 8.1 75 252.6 600 0.0 2.1 7.5 284
15/01/2020 14:40 8.2 74 151.2 10 0.0 2.5 9.0 283
15/01/2020 14:50 8.2 74 129.9 38 0.0 2.4 8.8 284
15/01/2020 15:00 8.2 74 106.8 0 0.0 2.5 8.9 288
15/01/2020 15:10 8.2 74 142.2 156 0.0 2.0 7.1 294
15/01/2020 15:20 8.6 74 182.8 600 0.0 2.0 7.1 282
15/01/2020 15:30 8.7 74 138.8 600 0.0 1.4 5.1 290
15/01/2020 15:40 8.7 74 120.4 600 0.0 1.5 5.3 283
15/01/2020 15:50 8.7 74 110.0 600 0.0 1.5 5.2 290
15/01/2020 16:00 8.6 74 105.8 600 0.0 1.8 6.6 315
15/01/2020 16:10 8.6 75 86.0 600 0.0 1.3 4.6 297
15/01/2020 16:20 8.5 76 68.9 490 0.0 1.2 4.1 301
15/01/2020 16:30 8.3 77 65.9 600 0.0 1.3 4.6 269
15/01/2020 16:40 8.3 76 47.3 600 0.0 1.5 5.4 305
15/01/2020 16:50 8.2 77 27.6 192 0.0 1.6 5.8 318
15/01/2020 17:00 7.9 77 7.0 0 0.0 1.2 4.2 278
15/01/2020 17:10 7.4 79 0.0 0 0.0 1.1 3.8 280
15/01/2020 17:20 6.7 80 0.0 0 0.0 2.2 7.7 325
15/01/2020 17:30 6.5 81 0.0 0 0.0 1.7 6.0 274
15/01/2020 17:40 5.9 82 0.0 0 0.0 1.6 5.6 301
15/01/2020 17:50 5.4 84 0.0 0 0.0 0.7 2.4 238
15/01/2020 18:00 5.0 84 0.0 0 0.0 0.8 2.8 295
15/01/2020 18:10 4.6 86 0.0 0 0.0 1.8 6.4 265
15/01/2020 18:20 4.0 87 0.0 0 0.0 1.1 3.9 61
15/01/2020 18:30 3.6 89 0.0 0 0.0 1.0 3.5 262
15/01/2020 18:40 3.6 89 0.0 0 0.0 1.8 6.6 269
15/01/2020 18:50 3.6 89 0.0 0 0.0 2.1 7.6 331
15/01/2020 19:00 3.5 89 0.0 0 0.0 1.3 4.5 256
15/01/2020 19:10 3.2 89 0.0 0 0.0 1.8 6.4 340
15/01/2020 19:20 2.6 90 0.0 0 0.0 0.8 2.7 230
15/01/2020 19:30 2.5 90 0.0 0 0.0 0.9 3.3 24
15/01/2020 19:40 2.4 90 0.0 0 0.0 0.6 2.2 0
15/01/2020 19:50 2.1 91 0.0 0 0.0 1.4 5.2 263
15/01/2020 20:00 2.1 92 0.0 0 0.0 1.6 5.8 277
15/01/2020 20:10 2.4 93 0.0 0 0.0 2.0 7.1 301
15/01/2020 20:20 2.8 93 0.0 0 0.0 1.0 3.6 5
15/01/2020 20:30 2.0 92 0.0 0 0.0 0.6 2.2 165
15/01/2020 20:40 1.7 93 0.0 0 0.0 1.2 4.1 126
15/01/2020 20:50 1.4 93 0.0 0 0.0 0.7 2.3 120
15/01/2020 21:00 1.1 93 0.0 0 0.0 0.5 1.7 197
15/01/2020 21:10 0.8 93 0.0 0 0.0 1.1 4.1 305
15/01/2020 21:20 0.9 94 0.0 0 0.0 1.3 4.6 328
15/01/2020 21:30 0.6 94 0.0 0 0.0 1.1 3.9 30
15/01/2020 21:40 0.1 94 0.0 0 0.0 0.7 2.6 127
15/01/2020 21:50 -0.1 95 0.0 0 0.0 0.7 2.6 173
15/01/2020 22:00 -0.1 95 0.0 0 0.0 0.3 1.2 177
15/01/2020 22:10 -0.3 95 0.0 0 0.0 0.7 2.4 174
15/01/2020 22:20 -0.2 95 0.0 0 0.0 0.4 1.3 301
15/01/2020 22:30 -0.3 95 0.0 0 0.0 1.0 3.7 349
15/01/2020 22:40 -0.3 95 0.0 0 0.0 0.5 1.8 301
15/01/2020 22:50 -0.4 95 0.0 0 0.0 0.3 1.2 300
15/01/2020 23:00 -0.5 95 0.0 0 0.0 0.8 2.8 354
15/01/2020 23:10 -0.6 95 0.0 0 0.0 1.5 5.3 274
15/01/2020 23:20 -0.6 95 0.0 0 0.0 0.9 3.3 312
15/01/2020 23:30 -0.7 95 0.0 0 0.0 1.1 3.9 294
15/01/2020 23:40 -0.7 95 0.0 0 0.0 1.3 4.6 296
15/01/2020 23:50 -0.4 96 0.0 0 0.0 1.6 5.9 323
Anterior Página 1 de 1 Siguiente

NOTA: Tipo de datos según el color:
   - Valores diarios o 10 minutos correctos
   - Valores diarios calculados a partir de un número de datos 10 minutos menor que 144 y mayor que 120, o de un número de datos semihorarios menor que 48 y mayor que 40 (caso de las estaciones de Riegos de Navarra y del MARM)
   - Valores diez minutos estimados


Contacto        Enlaces        Aviso legal